createdAt,value
2019-02-26T00:01:26.242Z,73.87
2019-02-26T00:03:56.999Z,73.89
2019-02-26T00:06:28.468Z,73.81
2019-02-26T00:08:59.386Z,73.66
2019-02-26T00:11:33.316Z,73.69
2019-02-26T00:14:02.544Z,73.80
2019-02-26T00:16:37.597Z,74.16
2019-02-26T00:19:07.310Z,74.52
2019-02-26T00:21:36.408Z,75.35
2019-02-26T00:24:07.331Z,75.86
2019-02-26T00:26:40.342Z,75.74
2019-02-26T00:29:09.425Z,75.58
2019-02-26T00:31:39.083Z,75.25
2019-02-26T00:34:10.674Z,75.10
2019-02-26T00:36:39.489Z,75.10
2019-02-26T00:39:10.552Z,75.08
2019-02-26T00:41:40.473Z,74.96
2019-02-26T00:44:11.187Z,75.11
2019-02-26T00:46:40.552Z,75.30
2019-02-26T00:49:10.153Z,75.39
2019-02-26T00:51:41.740Z,75.75
2019-02-26T00:54:10.554Z,76.09
2019-02-26T00:56:41.096Z,76.53
2019-02-26T00:59:10.540Z,77.20
2019-02-26T01:01:44.059Z,77.78
2019-02-26T01:04:11.259Z,77.92
2019-02-26T01:06:40.976Z,78.14
2019-02-26T01:09:12.077Z,78.12
2019-02-26T01:11:43.011Z,77.86
2019-02-26T01:14:13.676Z,78.14
2019-02-26T01:16:46.103Z,78.49
2019-02-26T01:19:17.519Z,78.69
2019-02-26T01:21:46.974Z,78.56
2019-02-26T01:24:16.474Z,78.56
2019-02-26T01:26:45.832Z,78.36
2019-02-26T01:29:18.613Z,78.12
2019-02-26T01:31:46.610Z,77.95
2019-02-26T01:34:18.072Z,77.64
2019-02-26T01:36:49.604Z,77.29
2019-02-26T01:39:21.130Z,77.21
2019-02-26T01:41:53.405Z,77.20
2019-02-26T01:44:21.686Z,77.38
2019-02-26T01:46:53.311Z,77.62
2019-02-26T01:49:23.737Z,77.95
2019-02-26T01:51:54.021Z,78.05
2019-02-26T01:54:23.819Z,78.11
2019-02-26T01:56:53.535Z,78.20
2019-02-26T01:59:22.903Z,78.20
2019-02-26T02:01:53.755Z,78.01
2019-02-26T02:04:23.870Z,77.97
2019-02-26T02:06:54.879Z,77.98
2019-02-26T02:09:27.850Z,77.94
2019-02-26T02:11:59.534Z,77.96
2019-02-26T02:14:28.895Z,77.96
2019-02-26T02:16:58.511Z,77.90
2019-02-26T02:19:30.193Z,77.85
2019-02-26T02:21:58.922Z,77.83
2019-02-26T02:24:28.835Z,77.76
2019-02-26T02:27:00.272Z,77.70
2019-02-26T02:29:31.938Z,77.61
2019-02-26T02:32:02.836Z,77.54
2019-02-26T02:34:36.587Z,77.50
2019-02-26T02:37:05.264Z,77.37
2019-02-26T02:39:34.920Z,77.27
2019-02-26T02:42:04.265Z,77.24
2019-02-26T02:44:34.076Z,77.18
2019-02-26T02:47:05.751Z,77.19
2019-02-26T02:49:38.918Z,77.19
2019-02-26T02:52:07.231Z,77.27
2019-02-26T02:54:38.566Z,77.38
2019-02-26T02:57:09.966Z,77.53
2019-02-26T02:59:42.304Z,77.58
2019-02-26T03:02:12.666Z,77.61
2019-02-26T03:04:42.105Z,77.61
2019-02-26T03:07:11.642Z,77.65
2019-02-26T03:09:43.297Z,77.59
2019-02-26T03:12:12.633Z,77.52
2019-02-26T03:14:44.516Z,77.56
2019-02-26T03:17:14.758Z,77.58
2019-02-26T03:19:44.720Z,77.63
2019-02-26T03:22:17.398Z,77.63
2019-02-26T03:24:45.438Z,77.66
2019-02-26T03:27:14.840Z,77.64
2019-02-26T03:29:45.057Z,77.61
2019-02-26T03:32:15.809Z,77.55
2019-02-26T03:34:46.224Z,77.45
2019-02-26T03:37:16.024Z,77.48
2019-02-26T03:39:45.418Z,77.62
2019-02-26T03:42:16.679Z,77.75
2019-02-26T03:44:47.036Z,77.82
2019-02-26T03:47:18.813Z,77.94
2019-02-26T03:49:48.145Z,78.15
2019-02-26T03:52:17.787Z,78.40
2019-02-26T03:54:48.590Z,78.57
2019-02-26T03:57:20.096Z,78.83
2019-02-26T03:59:49.287Z,79.27
2019-02-26T04:02:20.857Z,79.44
2019-02-26T04:04:53.894Z,79.72
2019-02-26T04:07:22.847Z,80.00
2019-02-26T04:09:53.110Z,80.15
2019-02-26T04:12:23.330Z,80.18
2019-02-26T04:14:52.983Z,80.16
2019-02-26T04:17:25.739Z,80.31
2019-02-26T04:19:54.405Z,80.43
2019-02-26T04:22:28.075Z,80.52
2019-02-26T04:25:06.379Z,80.63
2019-02-26T04:27:56.358Z,80.64
2019-02-26T04:30:56.359Z,80.79
2019-02-26T04:33:30.320Z,81.02
2019-02-26T04:36:20.449Z,81.28
2019-02-26T04:39:16.913Z,81.31
2019-02-26T04:42:09.459Z,81.31
2019-02-26T04:45:09.066Z,81.52
2019-02-26T04:47:49.498Z,81.58
2019-02-26T04:50:18.181Z,81.63
2019-02-26T04:52:47.547Z,81.81
2019-02-26T04:55:17.151Z,81.96
2019-02-26T04:57:49.062Z,81.96
2019-02-26T05:00:18.213Z,81.94
2019-02-26T05:02:47.581Z,81.99
2019-02-26T05:05:17.148Z,82.20
2019-02-26T05:07:47.992Z,82.33
2019-02-26T05:10:17.622Z,82.42
2019-02-26T05:12:47.263Z,82.53
2019-02-26T05:15:18.076Z,82.62
2019-02-26T05:17:47.927Z,82.65
2019-02-26T05:20:18.955Z,82.67
2019-02-26T05:22:48.718Z,82.65
2019-02-26T05:25:19.805Z,82.57
2019-02-26T05:27:50.893Z,82.54
2019-02-26T05:30:22.880Z,82.45
2019-02-26T05:32:56.590Z,82.39
2019-02-26T05:35:25.283Z,82.43
2019-02-26T05:37:56.190Z,82.41
2019-02-26T05:40:27.360Z,82.38
2019-02-26T05:42:59.318Z,82.32
2019-02-26T05:45:29.863Z,82.26
2019-02-26T05:48:01.212Z,82.21
2019-02-26T05:50:34.667Z,82.18
2019-02-26T05:53:04.917Z,82.19
2019-02-26T05:55:34.853Z,82.20
2019-02-26T05:58:04.489Z,82.14
2019-02-26T06:00:34.813Z,82.20
2019-02-26T06:03:07.192Z,82.30
2019-02-26T06:05:35.896Z,82.31
2019-02-26T06:08:05.618Z,82.33
2019-02-26T06:10:35.042Z,82.33
2019-02-26T06:13:05.376Z,82.32
2019-02-26T06:15:35.800Z,82.31
2019-02-26T06:18:06.470Z,82.36
2019-02-26T06:20:36.645Z,82.43
2019-02-26T06:23:06.465Z,82.46
2019-02-26T06:25:36.126Z,82.16
2019-02-26T06:28:07.697Z,82.08
2019-02-26T06:30:36.898Z,82.20
2019-02-26T06:33:09.120Z,82.37
2019-02-26T06:35:38.435Z,82.56
2019-02-26T06:38:09.806Z,82.60
2019-02-26T06:40:42.314Z,82.59
2019-02-26T06:43:11.502Z,82.67
2019-02-26T06:45:43.062Z,82.67
2019-02-26T06:48:14.654Z,82.64
2019-02-26T06:50:43.485Z,82.59
2019-02-26T06:53:14.350Z,82.68
2019-02-26T06:55:44.876Z,82.97
2019-02-26T06:58:22.122Z,83.28
2019-02-26T07:00:55.378Z,83.83
2019-02-26T07:03:25.070Z,84.11
2019-02-26T07:05:54.884Z,84.22
2019-02-26T07:08:26.769Z,84.02
2019-02-26T07:10:55.715Z,83.41
2019-02-26T07:13:30.575Z,82.46
2019-02-26T07:16:06.026Z,81.81
2019-02-26T07:18:35.676Z,80.52
2019-02-26T07:21:05.039Z,79.94
2019-02-26T07:23:37.627Z,79.34
2019-02-26T07:26:06.668Z,78.61
2019-02-26T07:28:39.703Z,77.17
2019-02-26T07:31:10.299Z,76.74
2019-02-26T07:33:40.041Z,76.35
2019-02-26T07:36:09.722Z,75.06
2019-02-26T07:38:41.507Z,74.54
2019-02-26T07:41:10.147Z,74.39
2019-02-26T07:43:41.797Z,73.98
2019-02-26T07:46:12.695Z,73.38
2019-02-26T07:48:42.082Z,72.81
2019-02-26T07:51:12.442Z,71.60
2019-02-26T07:53:48.518Z,70.82
2019-02-26T07:56:13.824Z,70.83
2019-02-26T07:58:43.257Z,71.11
2019-02-26T08:01:12.911Z,69.93
2019-02-26T08:03:44.036Z,69.93
2019-02-26T08:06:14.016Z,68.86
2019-02-26T08:08:44.910Z,68.16
2019-02-26T08:11:14.990Z,66.05
2019-02-26T08:13:44.379Z,64.91
2019-02-26T08:16:13.904Z,64.08
2019-02-26T08:18:43.280Z,64.08
2019-02-26T08:21:12.927Z,64.10
2019-02-26T08:23:43.668Z,64.10
2019-02-26T08:26:15.005Z,64.36
2019-02-26T08:28:45.815Z,64.45
2019-02-26T08:31:20.673Z,64.06
2019-02-26T08:33:51.795Z,63.29
2019-02-26T08:36:21.274Z,62.44
2019-02-26T08:38:52.047Z,62.30
2019-02-26T08:41:22.166Z,61.96
2019-02-26T08:43:54.000Z,60.58
2019-02-26T08:46:23.178Z,59.13
2019-02-26T08:48:52.623Z,59.17
2019-02-26T08:51:22.070Z,58.84
2019-02-26T08:53:51.903Z,58.79
2019-02-26T08:56:26.217Z,58.78
2019-02-26T08:58:55.384Z,57.99
2019-02-26T09:01:25.159Z,57.00
2019-02-26T09:03:55.846Z,55.70
2019-02-26T09:06:25.958Z,53.97
2019-02-26T09:08:57.347Z,52.56
2019-02-26T09:11:28.636Z,51.97
2019-02-26T09:13:59.591Z,51.80
2019-02-26T09:16:30.346Z,52.05
2019-02-26T09:18:59.544Z,52.80
2019-02-26T09:21:30.438Z,52.70
2019-02-26T09:24:04.227Z,52.45
2019-02-26T09:26:31.208Z,51.76
2019-02-26T09:29:00.577Z,50.29
2019-02-26T09:31:31.220Z,47.92
2019-02-26T09:34:00.826Z,47.92
2019-02-26T09:36:30.186Z,47.58
2019-02-26T09:38:59.553Z,47.44
2019-02-26T09:41:29.216Z,45.66
2019-02-26T09:43:59.381Z,45.54
2019-02-26T09:46:31.771Z,44.69
2019-02-26T09:49:03.148Z,44.64
2019-02-26T09:51:33.534Z,44.74
2019-02-26T09:54:03.684Z,43.42
2019-02-26T09:56:33.241Z,43.69
2019-02-26T09:59:04.737Z,43.47
2019-02-26T10:01:37.699Z,42.59
2019-02-26T10:04:06.575Z,42.70
2019-02-26T10:06:37.906Z,43.32
2019-02-26T10:09:10.876Z,42.85
2019-02-26T10:11:41.929Z,41.46
2019-02-26T10:14:12.765Z,40.96
2019-02-26T10:16:44.566Z,39.03
2019-02-26T10:19:14.953Z,39.03
2019-02-26T10:21:45.255Z,38.66
2019-02-26T10:24:14.700Z,39.26
2019-02-26T10:26:44.340Z,37.89
2019-02-26T10:29:13.962Z,37.11
2019-02-26T10:31:43.831Z,37.42
2019-02-26T10:34:15.681Z,37.02
2019-02-26T10:36:47.278Z,36.73
2019-02-26T10:39:20.087Z,35.99
2019-02-26T10:41:47.617Z,33.70
2019-02-26T10:44:17.282Z,33.70
2019-02-26T10:46:47.171Z,34.46
2019-02-26T10:49:16.856Z,34.74
2019-02-26T10:51:46.555Z,34.45
2019-02-26T10:54:17.945Z,34.24
2019-02-26T10:56:46.933Z,34.04
2019-02-26T10:59:19.567Z,33.64
2019-02-26T11:01:51.679Z,34.20
2019-02-26T11:04:19.114Z,34.17
2019-02-26T11:06:50.691Z,33.41
2019-02-26T11:09:25.310Z,33.41
2019-02-26T11:11:51.748Z,31.69
2019-02-26T11:14:21.738Z,31.69
2019-02-26T11:16:51.093Z,31.51
2019-02-26T11:19:20.651Z,31.56
2019-02-26T11:21:51.951Z,31.01
2019-02-26T11:24:23.323Z,30.85
2019-02-26T11:26:52.104Z,30.86
2019-02-26T11:29:21.525Z,31.85
2019-02-26T11:31:51.192Z,31.90
2019-02-26T11:34:20.988Z,31.44
2019-02-26T11:36:54.179Z,31.62
2019-02-26T11:39:23.900Z,30.97
2019-02-26T11:41:56.249Z,31.21
2019-02-26T11:44:25.904Z,31.90
2019-02-26T11:46:56.618Z,30.05
2019-02-26T11:49:26.020Z,30.17
2019-02-26T11:51:56.343Z,31.70
2019-02-26T11:54:25.717Z,31.87
2019-02-26T11:56:55.068Z,31.35
2019-02-26T11:59:24.669Z,31.27
2019-02-26T12:01:56.022Z,31.16
2019-02-26T12:04:25.149Z,30.91
2019-02-26T12:06:55.894Z,28.40
2019-02-26T12:09:25.936Z,28.43
2019-02-26T12:11:56.063Z,29.04
2019-02-26T12:14:27.747Z,28.59
2019-02-26T12:16:57.494Z,28.74
2019-02-26T12:19:28.418Z,28.36
2019-02-26T12:22:00.798Z,27.76
2019-02-26T12:24:31.271Z,28.36
2019-02-26T12:27:00.371Z,27.37
2019-02-26T12:29:29.864Z,27.22
2019-02-26T12:32:01.181Z,27.20
2019-02-26T12:34:30.278Z,27.28
2019-02-26T12:37:02.813Z,27.06
2019-02-26T12:39:33.517Z,27.11
2019-02-26T12:42:02.866Z,26.78
2019-02-26T12:44:34.787Z,26.60
2019-02-26T12:47:03.525Z,26.14
2019-02-26T12:49:35.628Z,26.94
2019-02-26T12:52:04.218Z,23.74
2019-02-26T12:54:37.276Z,23.26
2019-02-26T12:57:04.625Z,23.78
2019-02-26T12:59:34.165Z,24.57
2019-02-26T13:02:05.565Z,23.93
2019-02-26T13:04:37.378Z,24.22
2019-02-26T13:07:08.648Z,24.07
2019-02-26T13:09:41.114Z,22.25
2019-02-26T13:12:07.817Z,19.99
2019-02-26T13:14:37.446Z,20.26
2019-02-26T13:17:07.151Z,19.75
2019-02-26T13:19:37.293Z,19.77
2019-02-26T13:22:11.959Z,19.77
2019-02-26T13:24:38.198Z,19.92
2019-02-26T13:27:07.559Z,19.63
2019-02-26T13:29:42.394Z,19.54
2019-02-26T13:32:13.117Z,19.89
2019-02-26T13:34:39.939Z,20.25
2019-02-26T13:37:09.341Z,20.64
2019-02-26T13:39:41.432Z,21.20
2019-02-26T13:42:13.246Z,21.76
2019-02-26T13:44:40.804Z,21.15
2019-02-26T13:47:10.556Z,20.96
2019-02-26T13:49:40.585Z,20.22
2019-02-26T13:52:09.947Z,19.79
2019-02-26T13:54:39.613Z,20.82
2019-02-26T13:57:09.341Z,21.33
2019-02-26T13:59:38.691Z,20.97
2019-02-26T14:02:13.893Z,21.26
2019-02-26T14:04:43.707Z,22.21
2019-02-26T14:07:13.324Z,21.76
2019-02-26T14:09:42.788Z,22.47
2019-02-26T14:12:12.156Z,22.47
2019-02-26T14:14:41.728Z,22.80
2019-02-26T14:17:11.111Z,21.77
2019-02-26T14:19:40.807Z,22.38
2019-02-26T14:22:10.162Z,23.40
2019-02-26T14:24:39.851Z,23.15
2019-02-26T14:27:09.850Z,22.89
2019-02-26T14:29:39.554Z,22.07
2019-02-26T14:32:09.169Z,22.10
2019-02-26T14:34:40.242Z,23.04
2019-02-26T14:37:10.938Z,23.15
2019-02-26T14:39:40.603Z,22.63
2019-02-26T14:42:09.969Z,22.44
2019-02-26T14:44:39.660Z,22.72
2019-02-26T14:47:09.023Z,23.26
2019-02-26T14:49:38.679Z,22.62
2019-02-26T14:52:08.554Z,22.96
2019-02-26T14:54:37.889Z,23.94
2019-02-26T14:57:07.551Z,24.32
2019-02-26T14:59:37.203Z,22.93
2019-02-26T15:02:07.123Z,23.25
2019-02-26T15:04:37.101Z,23.00
2019-02-26T15:07:06.669Z,22.84
2019-02-26T15:09:37.036Z,23.02
2019-02-26T15:12:08.074Z,22.68
2019-02-26T15:14:37.509Z,22.42
2019-02-26T15:17:06.850Z,23.52
2019-02-26T15:19:49.214Z,23.86
2019-02-26T15:22:08.312Z,24.25
2019-02-26T15:24:37.974Z,23.39
2019-02-26T15:27:07.325Z,23.70
2019-02-26T15:29:37.145Z,23.57
2019-02-26T15:32:07.137Z,24.00
2019-02-26T15:34:37.193Z,23.92
2019-02-26T15:37:06.801Z,23.45
2019-02-26T15:39:37.155Z,23.50
2019-02-26T15:42:06.836Z,23.13
2019-02-26T15:44:37.426Z,24.14
2019-02-26T15:47:07.054Z,24.65
2019-02-26T15:49:37.768Z,24.38
2019-02-26T15:52:07.796Z,25.07
2019-02-26T15:54:37.587Z,25.92
2019-02-26T15:57:07.964Z,26.44
2019-02-26T15:59:37.413Z,26.75
2019-02-26T16:02:06.817Z,26.97
2019-02-26T16:04:37.516Z,26.97
2019-02-26T16:07:06.898Z,26.10
2019-02-26T16:09:37.420Z,26.33
2019-02-26T16:12:07.240Z,26.43
2019-02-26T16:14:37.507Z,26.61
2019-02-26T16:17:07.075Z,26.78
2019-02-26T16:19:37.254Z,27.11
2019-02-26T16:22:06.864Z,26.92
2019-02-26T16:24:37.527Z,26.67
2019-02-26T16:27:07.336Z,26.80
2019-02-26T16:29:37.977Z,27.17
2019-02-26T16:32:07.368Z,27.70
2019-02-26T16:34:38.322Z,27.89
2019-02-26T17:25:10.647Z,36.01
2019-02-26T17:27:40.314Z,36.33
2019-02-26T17:30:12.450Z,35.90
2019-02-26T17:32:42.094Z,35.92
2019-02-26T17:35:12.595Z,35.99
2019-02-26T17:37:42.306Z,36.24
2019-02-26T17:40:20.285Z,36.65
2019-02-26T17:42:51.339Z,37.09
2019-02-26T17:45:26.331Z,36.57
2019-02-26T17:47:57.408Z,36.37
2019-02-26T17:50:33.581Z,36.31
2019-02-26T17:53:03.518Z,36.98
2019-02-26T17:55:33.163Z,37.39
2019-02-26T17:58:02.785Z,38.08
2019-02-26T18:00:33.940Z,38.63
2019-02-26T18:03:06.391Z,38.66
2019-02-26T18:05:34.375Z,38.79
2019-02-26T18:08:04.064Z,39.18
2019-02-26T18:10:33.411Z,39.15
2019-02-26T18:13:03.462Z,39.41
2019-02-26T18:15:32.809Z,39.12
2019-02-26T18:18:02.322Z,39.07
2019-02-26T18:20:31.666Z,39.50
2019-02-26T18:23:01.475Z,40.35
2019-02-26T18:25:32.100Z,40.98
2019-02-26T18:28:01.711Z,40.66
2019-02-26T18:30:32.560Z,40.66
2019-02-26T18:33:02.223Z,40.93
2019-02-26T18:35:31.643Z,41.09
2019-02-26T18:38:01.300Z,41.52
2019-02-26T18:40:30.643Z,41.33
2019-02-26T18:43:00.171Z,41.13
2019-02-26T18:45:30.834Z,41.02
2019-02-26T18:48:00.298Z,41.11
2019-02-26T18:50:30.152Z,41.43
2019-02-26T18:52:59.508Z,41.68
2019-02-26T18:55:32.312Z,42.03
2019-02-26T18:58:00.674Z,42.12
2019-02-26T19:00:33.024Z,42.32
2019-02-26T19:03:02.412Z,42.78
2019-02-26T19:05:32.183Z,42.94
2019-02-26T19:08:05.536Z,43.49
2019-02-26T19:10:33.285Z,43.43
2019-02-26T19:13:03.342Z,43.46
2019-02-26T19:15:34.243Z,43.69
2019-02-26T19:18:03.700Z,43.94
2019-02-26T19:20:38.198Z,44.18
2019-02-26T19:23:07.661Z,44.88
2019-02-26T19:25:41.413Z,45.13
2019-02-26T19:28:09.895Z,45.27
2019-02-26T19:30:39.688Z,45.14
2019-02-26T19:33:09.404Z,45.07
2019-02-26T19:35:40.497Z,45.07
2019-02-26T19:38:10.630Z,45.57
2019-02-26T19:40:58.383Z,46.22
2019-02-26T19:43:28.896Z,45.58
2019-02-26T19:45:58.531Z,45.86
2019-02-26T19:48:30.487Z,45.86
2019-02-26T19:50:58.952Z,46.97
2019-02-26T19:53:28.417Z,47.25
2019-02-26T19:55:58.010Z,47.62
2019-02-26T19:58:27.536Z,48.36
2019-02-26T20:00:56.876Z,48.36
2019-02-26T20:03:26.494Z,48.31
2019-02-26T20:05:55.844Z,48.51
2019-02-26T20:08:25.525Z,48.68
2019-02-26T20:10:54.869Z,49.08
2019-02-26T20:13:25.650Z,49.66
2019-02-26T20:15:55.422Z,49.98
2019-02-26T20:18:26.170Z,50.03
2019-02-26T20:20:56.008Z,50.00
2019-02-26T20:23:25.562Z,50.90
2019-02-26T20:25:55.264Z,51.73
2019-02-26T20:28:24.684Z,52.09
2019-02-26T20:30:54.330Z,51.85
2019-02-26T20:33:23.689Z,51.98
2019-02-26T20:35:53.032Z,52.25
2019-02-26T20:38:22.938Z,52.31
2019-02-26T20:40:52.970Z,52.09
2019-02-26T20:43:22.982Z,52.32
2019-02-26T20:45:52.633Z,52.44
2019-02-26T20:48:22.034Z,52.85
2019-02-26T20:50:53.749Z,53.12
2019-02-26T20:53:22.818Z,53.17
2019-02-26T20:55:52.930Z,53.33
2019-02-26T20:58:23.281Z,53.71
2019-02-26T21:00:58.818Z,53.89
2019-02-26T21:03:29.405Z,53.97
2019-02-26T21:05:59.055Z,53.80
2019-02-26T21:08:30.938Z,53.66
2019-02-26T21:10:59.851Z,53.38
2019-02-26T21:13:29.210Z,53.31
2019-02-26T21:15:58.814Z,53.50
2019-02-26T21:18:30.255Z,53.63
2019-02-26T21:20:59.219Z,53.73
2019-02-26T21:23:28.757Z,53.85
2019-02-26T21:25:58.095Z,54.09
2019-02-26T21:28:27.756Z,54.82
2019-02-26T21:30:57.102Z,54.91
2019-02-26T21:33:30.588Z,54.95
2019-02-26T21:35:57.914Z,54.98
2019-02-26T21:38:27.279Z,55.19
2019-02-26T21:40:56.850Z,55.67
2019-02-26T21:43:26.241Z,56.01
2019-02-26T21:45:56.133Z,56.51
2019-02-26T21:48:25.473Z,56.55
2019-02-26T21:50:55.419Z,56.48
2019-02-26T21:53:25.012Z,56.42
2019-02-26T21:55:55.664Z,56.40
2019-02-26T21:58:26.931Z,56.44
2019-02-26T22:00:56.151Z,56.44
2019-02-26T22:03:26.567Z,56.55
2019-02-26T22:06:05.080Z,56.09
2019-02-26T22:08:28.094Z,56.13
2019-02-26T22:10:57.458Z,56.18
2019-02-26T22:13:29.051Z,56.71
2019-02-26T22:15:58.041Z,56.71
2019-02-26T22:18:31.169Z,57.71
2019-02-26T22:20:58.457Z,58.18
2019-02-26T22:23:29.384Z,58.33
2019-02-26T22:25:59.110Z,58.68
2019-02-26T22:28:28.449Z,58.78
2019-02-26T22:30:58.088Z,58.77
2019-02-26T22:33:27.713Z,58.96
2019-02-26T22:35:59.846Z,59.17
2019-02-26T22:38:28.481Z,59.30
2019-02-26T22:40:59.948Z,59.60
2019-02-26T22:43:29.185Z,59.79
2019-02-26T22:46:01.035Z,59.99
2019-02-26T22:48:30.128Z,60.21
2019-02-26T22:51:00.237Z,60.36
2019-02-26T22:53:30.588Z,60.61
2019-02-26T22:56:00.206Z,60.65
2019-02-26T22:58:29.542Z,60.64
2019-02-26T23:01:18.660Z,60.75
2019-02-26T23:03:49.619Z,60.89
2019-02-26T23:06:20.353Z,60.94
2019-02-26T23:08:49.760Z,60.81
2019-02-26T23:11:19.458Z,60.79
2019-02-26T23:13:48.959Z,60.82
2019-02-26T23:16:19.153Z,60.89
2019-02-26T23:18:48.661Z,60.75
2019-02-26T23:21:18.331Z,60.54
2019-02-26T23:23:48.331Z,60.33
2019-02-26T23:26:17.690Z,60.23
2019-02-26T23:28:47.326Z,60.30
2019-02-26T23:31:17.184Z,60.44
2019-02-26T23:33:48.407Z,60.79
2019-02-26T23:36:17.653Z,61.08
2019-02-26T23:38:47.458Z,61.28
2019-02-26T23:41:16.890Z,61.45
2019-02-26T23:43:46.610Z,61.58
2019-02-26T23:46:15.959Z,61.65
2019-02-26T23:48:45.597Z,62.00
2019-02-26T23:51:15.203Z,62.21
2019-02-26T23:53:44.546Z,62.46
2019-02-26T23:56:16.770Z,62.56
2019-02-26T23:58:46.025Z,62.63
